Archival Weather

Chicago O'Hare International

Chicago, Illinois (KORD)

Report from: Thursday, May 11, 2023 10:51 AM CDT
Current time: Monday, March 4, 2024 7:33 PM CST

Current weather – Weather history – Daily summaries
Weather forecast

Temperature25.6°C (78.1°F)
Dew point6.1°C (43.0°F)
Winds 10 kts (5.1 m/s, 11.5 mph) South-Southeast (150°)
Visibility10 mi. (16.1 km)
Clouds Few clouds 13,000 ft. (3,962 m)
Scattered clouds 30,000 ft. (9,144 m)
Altimeter30.10 in.Hg (1019 mB)
Relative humidity29 %
Density altitude1,173 ft. (357 m)
Sea-level pressure101.9 kPa (1019 mB, 30.09 in.Hg)
Remarks Automated weather observing station with precipitation discriminator
Flight conditions Visual Meteorological Conditions
Raw dataKORD 111551Z 15010KT 10SM FEW130 SCT300 26/06 A3010 RMK AO2 SLP190 T02560061
An error has occurred. This application may no longer respond until reloaded. Reload 🗙